createdAt,value
2023-04-25T00:00:07.841Z,12.30
2023-04-25T00:02:39.556Z,14.40
2023-04-25T00:05:12.653Z,12.13
2023-04-25T00:07:44.772Z,10.60
2023-04-25T00:10:18.253Z,11.70
2023-04-25T00:12:50.343Z,12.07
2023-04-25T00:15:22.310Z,12.73
2023-04-25T00:17:54.798Z,9.90
2023-04-25T00:20:26.797Z,13.70
2023-04-25T00:22:58.636Z,12.60
2023-04-25T00:25:31.818Z,9.37
2023-04-25T00:28:03.639Z,13.03
2023-04-25T00:30:35.585Z,11.53
2023-04-25T00:33:07.532Z,13.70
2023-04-25T00:35:40.390Z,12.90
2023-04-25T00:38:12.654Z,11.50
2023-04-25T00:40:45.699Z,11.23
2023-04-25T00:43:18.654Z,10.93
2023-04-25T00:45:56.793Z,11.57
2023-04-25T00:48:28.509Z,15.63
2023-04-25T00:51:03.483Z,15.13
2023-04-25T00:53:37.719Z,14.77
2023-04-25T00:56:11.140Z,13.07
2023-04-25T00:58:44.443Z,14.63
2023-04-25T01:01:17.528Z,17.10
2023-04-25T01:03:52.020Z,10.93
2023-04-25T01:06:24.346Z,11.30
2023-04-25T01:08:56.893Z,16.00
2023-04-25T01:11:30.135Z,16.50
2023-04-25T01:14:03.500Z,13.80
2023-04-25T01:16:35.468Z,13.33
2023-04-25T01:19:11.984Z,11.57
2023-04-25T01:21:45.063Z,8.67
2023-04-25T01:24:17.785Z,13.87
2023-04-25T01:26:51.653Z,16.00
2023-04-25T01:29:25.213Z,15.70
2023-04-25T01:31:59.263Z,12.13
2023-04-25T01:34:30.953Z,14.80
2023-04-25T01:37:05.551Z,16.77
2023-04-25T01:39:38.095Z,10.57
2023-04-25T01:42:10.072Z,11.17
2023-04-25T01:44:41.900Z,16.53
2023-04-25T01:47:13.769Z,15.40
2023-04-25T01:49:45.804Z,13.70
2023-04-25T01:52:18.828Z,13.60
2023-04-25T01:54:51.739Z,13.57
2023-04-25T01:57:23.584Z,12.30
2023-04-25T01:59:56.994Z,12.40
2023-04-25T02:02:28.986Z,14.23
2023-04-25T02:05:00.660Z,15.70
2023-04-25T02:07:33.964Z,15.60
2023-04-25T02:10:05.749Z,13.00
2023-04-25T02:12:37.820Z,14.30
2023-04-25T02:15:12.505Z,11.10
2023-04-25T02:17:46.151Z,12.70
2023-04-25T02:20:18.887Z,11.87
2023-04-25T02:22:52.076Z,16.83
2023-04-25T02:25:24.645Z,11.33
2023-04-25T02:27:56.452Z,13.77
2023-04-25T02:30:28.278Z,12.97
2023-04-25T02:33:00.385Z,12.53
2023-04-25T02:35:32.324Z,12.30
2023-04-25T02:38:05.583Z,15.10
2023-04-25T02:40:37.466Z,14.77
2023-04-25T02:43:09.461Z,14.37
2023-04-25T02:45:41.334Z,13.97
2023-04-25T02:48:13.115Z,13.60
2023-04-25T02:50:45.679Z,12.17
2023-04-25T02:53:18.633Z,10.80
2023-04-25T02:55:50.682Z,12.17
2023-04-25T02:58:24.405Z,12.77
2023-04-25T03:00:56.116Z,14.73
2023-04-25T03:03:28.141Z,13.80
2023-04-25T03:05:59.867Z,15.87
2023-04-25T03:08:33.670Z,16.90
2023-04-25T03:11:05.522Z,14.67
2023-04-25T03:13:37.450Z,18.87
2023-04-25T03:16:10.877Z,11.87
2023-04-25T03:18:42.496Z,22.77
2023-04-25T03:21:15.741Z,16.10
2023-04-25T03:23:48.936Z,17.67
2023-04-25T03:26:21.460Z,15.17
2023-04-25T03:28:53.285Z,17.23
2023-04-25T03:31:25.208Z,18.30
2023-04-25T03:33:57.124Z,14.33
2023-04-25T03:36:30.510Z,21.03
2023-04-25T03:39:03.960Z,18.57
2023-04-25T03:41:37.404Z,16.53
2023-04-25T03:44:10.690Z,18.17
2023-04-25T03:46:42.561Z,19.47
2023-04-25T03:49:17.150Z,16.47
2023-04-25T03:51:51.116Z,18.17
2023-04-25T03:54:24.060Z,22.80
2023-04-25T03:56:55.922Z,16.13
2023-04-25T03:59:28.009Z,20.00
2023-04-25T04:02:00.431Z,19.33
2023-04-25T04:04:32.238Z,17.60
2023-04-25T04:07:03.965Z,23.50
2023-04-25T04:09:36.954Z,17.77
2023-04-25T04:12:09.824Z,22.10
2023-04-25T04:14:42.027Z,19.53
2023-04-25T04:17:13.636Z,18.07
2023-04-25T04:19:45.962Z,19.00
2023-04-25T04:22:17.814Z,19.37
2023-04-25T04:24:50.974Z,14.40
2023-04-25T04:27:24.321Z,15.17
2023-04-25T04:29:57.083Z,18.43
2023-04-25T04:32:28.974Z,22.80
2023-04-25T04:35:00.632Z,19.60
2023-04-25T04:37:32.337Z,16.97
2023-04-25T04:40:06.241Z,19.40
2023-04-25T04:42:38.169Z,15.83
2023-04-25T04:45:12.122Z,14.97
2023-04-25T04:47:44.234Z,21.53
2023-04-25T04:50:17.138Z,15.93
2023-04-25T04:52:49.228Z,18.43
2023-04-25T04:55:22.495Z,21.23
2023-04-25T04:57:54.624Z,21.43
2023-04-25T05:00:27.893Z,21.50
2023-04-25T05:03:02.046Z,25.43
2023-04-25T05:05:34.119Z,18.90
2023-04-25T05:08:06.079Z,15.60
2023-04-25T05:10:39.137Z,17.57
2023-04-25T05:13:10.974Z,20.93
2023-04-25T05:15:42.965Z,21.00
2023-04-25T05:18:15.063Z,22.90
2023-04-25T05:20:46.997Z,26.20
2023-04-25T05:23:18.867Z,23.87
2023-04-25T05:25:52.167Z,22.53
2023-04-25T05:28:24.034Z,24.87
2023-04-25T05:30:55.977Z,19.57
2023-04-25T05:33:27.786Z,21.93
2023-04-25T05:35:59.699Z,26.67
2023-04-25T05:38:33.968Z,23.57
2023-04-25T05:41:09.205Z,19.60
2023-04-25T05:43:46.022Z,20.80
2023-04-25T05:46:18.471Z,19.57
2023-04-25T05:48:50.153Z,17.67
2023-04-25T05:51:22.344Z,20.87
2023-04-25T05:53:54.077Z,19.50
2023-04-25T05:56:27.622Z,14.20
2023-04-25T05:58:59.516Z,20.47
2023-04-25T06:01:29.352Z,23.43
2023-04-25T06:04:01.359Z,16.97
2023-04-25T06:06:33.716Z,20.30
2023-04-25T06:09:05.404Z,14.83
2023-04-25T06:11:38.359Z,20.57
2023-04-25T06:14:10.182Z,16.93
2023-04-25T06:16:42.087Z,21.53
2023-04-25T06:19:13.989Z,21.23
2023-04-25T06:21:47.288Z,17.13
2023-04-25T06:24:19.116Z,16.90
2023-04-25T06:26:52.352Z,22.00
2023-04-25T06:29:25.283Z,14.17
2023-04-25T06:31:58.071Z,15.23
2023-04-25T06:34:29.914Z,14.10
2023-04-25T06:37:01.853Z,18.43
2023-04-25T06:39:33.793Z,22.77
2023-04-25T06:42:06.970Z,21.87
2023-04-25T06:44:38.804Z,15.87
2023-04-25T06:47:11.106Z,13.73
2023-04-25T06:49:42.780Z,15.93
2023-04-25T06:52:14.557Z,19.17
2023-04-25T06:54:46.435Z,14.57
2023-04-25T06:57:19.723Z,14.10
2023-04-25T06:59:51.658Z,23.23
2023-04-25T07:02:23.748Z,15.30
2023-04-25T07:04:57.259Z,18.00
2023-04-25T07:07:29.794Z,14.37
2023-04-25T07:10:01.729Z,16.93
2023-04-25T07:12:34.923Z,17.90
2023-04-25T07:15:09.069Z,13.77
2023-04-25T07:17:40.719Z,15.33
2023-04-25T07:20:12.643Z,17.97
2023-04-25T07:22:44.956Z,16.87
2023-04-25T07:25:17.328Z,19.60
2023-04-25T07:27:50.279Z,11.70
2023-04-25T07:30:22.212Z,19.30
2023-04-25T07:32:54.081Z,12.37
2023-04-25T07:35:25.941Z,13.83
2023-04-25T07:37:57.756Z,19.00
2023-04-25T07:40:30.207Z,12.53
2023-04-25T07:43:03.345Z,15.70
2023-04-25T07:45:35.281Z,14.47
2023-04-25T07:48:07.300Z,11.20
2023-04-25T07:50:39.235Z,13.50
2023-04-25T07:53:11.227Z,14.20
2023-04-25T07:55:43.106Z,12.83
2023-04-25T07:58:16.532Z,13.80
2023-04-25T08:00:48.614Z,14.57
2023-04-25T08:03:20.802Z,17.47
2023-04-25T08:05:53.364Z,10.50
2023-04-25T08:08:25.302Z,17.07
2023-04-25T08:11:00.236Z,22.20
2023-04-25T08:13:33.539Z,16.00
2023-04-25T08:16:05.419Z,14.00
2023-04-25T08:18:37.278Z,10.20
2023-04-25T08:21:12.415Z,13.20
2023-04-25T08:23:44.450Z,12.80
2023-04-25T08:26:16.386Z,10.07
2023-04-25T08:28:50.834Z,11.60
2023-04-25T08:31:23.202Z,9.30
2023-04-25T08:33:55.458Z,9.17
2023-04-25T08:36:38.722Z,14.20
2023-04-25T08:39:14.285Z,8.27
2023-04-25T08:41:50.037Z,10.57
2023-04-25T08:44:25.610Z,12.83
2023-04-25T08:47:00.526Z,8.57
2023-04-25T08:49:34.397Z,9.33
2023-04-25T08:52:08.799Z,11.13
2023-04-25T08:54:44.477Z,14.47
2023-04-25T08:57:20.280Z,7.53
2023-04-25T08:59:53.885Z,10.20
2023-04-25T09:02:26.711Z,12.33
2023-04-25T09:05:00.299Z,9.10
2023-04-25T09:07:33.594Z,9.50
2023-04-25T09:10:05.860Z,16.00
2023-04-25T09:12:38.801Z,9.30
2023-04-25T09:15:20.550Z,13.30
2023-04-25T09:18:02.844Z,14.33
2023-04-25T09:20:59.496Z,7.47
2023-04-25T09:23:33.866Z,9.20
2023-04-25T09:26:09.139Z,12.10
2023-04-25T09:28:40.730Z,11.90
2023-04-25T09:31:23.120Z,7.97
2023-04-25T09:34:03.423Z,7.57
2023-04-25T09:36:38.305Z,8.17
2023-04-25T09:39:20.419Z,10.23
2023-04-25T09:41:57.381Z,8.63
2023-04-25T09:44:29.503Z,7.60
2023-04-25T09:47:03.848Z,6.83
2023-04-25T09:49:35.504Z,8.03
2023-04-25T09:52:07.353Z,9.07
2023-04-25T09:54:39.236Z,8.27
2023-04-25T09:57:17.976Z,5.37
2023-04-25T09:59:52.706Z,5.50
2023-04-25T10:02:30.054Z,8.60
2023-04-25T10:05:04.865Z,6.90
2023-04-25T10:07:39.177Z,6.03
2023-04-25T10:10:16.310Z,5.83
2023-04-25T10:12:49.386Z,9.23
2023-04-25T10:15:21.578Z,5.60
2023-04-25T10:17:55.699Z,7.60
2023-04-25T10:20:28.515Z,8.13
2023-04-25T10:23:06.750Z,7.03
2023-04-25T10:25:39.193Z,6.00
2023-04-25T10:28:11.474Z,6.90
2023-04-25T10:30:59.325Z,6.10
2023-04-25T10:33:44.974Z,7.33
2023-04-25T10:36:19.753Z,6.70
2023-04-25T10:38:55.285Z,4.70
2023-04-25T10:41:27.884Z,7.83
2023-04-25T10:44:08.717Z,10.43
2023-04-25T10:46:41.360Z,6.13
2023-04-25T10:49:30.268Z,8.93
2023-04-25T10:52:26.298Z,11.80
2023-04-25T10:55:00.020Z,9.10
2023-04-25T10:57:41.956Z,8.03
2023-04-25T11:00:25.912Z,5.67
2023-04-25T11:03:04.434Z,7.37
2023-04-25T11:05:55.223Z,8.17
2023-04-25T11:08:49.492Z,8.50
2023-04-25T11:11:22.480Z,9.00
2023-04-25T11:13:54.734Z,7.20
2023-04-25T11:16:32.043Z,8.10
2023-04-25T11:19:04.106Z,6.17
2023-04-25T11:21:37.184Z,6.17
2023-04-25T11:24:09.040Z,5.40
2023-04-25T11:26:45.076Z,8.23
2023-04-25T11:29:16.917Z,7.50
2023-04-25T11:31:51.232Z,5.93
2023-04-25T11:34:23.528Z,3.67
2023-04-25T11:36:56.855Z,5.93
2023-04-25T11:39:30.990Z,7.60
2023-04-25T11:42:03.866Z,5.70
2023-04-25T11:44:39.678Z,4.63
2023-04-25T11:47:11.304Z,5.13
2023-04-25T11:49:43.252Z,7.20
2023-04-25T11:52:16.225Z,8.00
2023-04-25T11:54:50.844Z,5.93
2023-04-25T11:57:24.977Z,6.77
2023-04-25T11:59:57.359Z,4.00
2023-04-25T12:02:31.921Z,8.13
2023-04-25T12:05:29.374Z,5.20
2023-04-25T12:08:11.391Z,5.30
2023-04-25T12:10:45.269Z,5.53
2023-04-25T12:13:29.511Z,3.60
2023-04-25T12:16:02.317Z,5.63
2023-04-25T12:18:37.654Z,4.43
2023-04-25T12:21:11.518Z,6.17
2023-04-25T12:23:45.625Z,4.87
2023-04-25T12:26:18.103Z,8.87
2023-04-25T12:28:52.184Z,5.27
2023-04-25T12:31:24.272Z,7.17
2023-04-25T12:33:55.866Z,6.50
2023-04-25T12:36:28.643Z,4.40
2023-04-25T12:39:05.121Z,4.53
2023-04-25T12:41:36.984Z,4.07
2023-04-25T12:44:09.021Z,3.77
2023-04-25T12:46:42.682Z,3.47
2023-04-25T12:49:18.694Z,9.30
2023-04-25T12:51:52.613Z,8.80
2023-04-25T12:54:26.521Z,8.33
2023-04-25T12:56:59.182Z,11.43
2023-04-25T12:59:31.426Z,4.70
2023-04-25T13:02:03.896Z,7.43
2023-04-25T13:04:35.727Z,4.53
2023-04-25T13:07:07.642Z,3.67
2023-04-25T13:09:40.688Z,3.93
2023-04-25T13:12:12.502Z,2.13
2023-04-25T13:14:44.367Z,2.57
2023-04-25T13:17:16.278Z,2.93
2023-04-25T13:19:48.363Z,3.30
2023-04-25T13:22:21.131Z,2.03
2023-04-25T13:24:54.408Z,2.73
2023-04-25T13:27:26.282Z,3.60
2023-04-25T13:29:58.218Z,6.00
2023-04-25T13:32:30.062Z,5.10
2023-04-25T13:35:03.726Z,4.27
2023-04-25T13:37:37.884Z,8.50
2023-04-25T13:40:12.817Z,7.83
2023-04-25T13:42:46.352Z,9.47
2023-04-25T13:45:18.502Z,8.93
2023-04-25T13:47:50.899Z,6.97
2023-04-25T13:50:23.096Z,5.07
2023-04-25T13:52:55.054Z,8.50
2023-04-25T13:55:28.151Z,9.67
2023-04-25T13:58:00.276Z,5.43
2023-04-25T14:00:32.389Z,5.10
2023-04-25T14:03:08.000Z,4.67
2023-04-25T14:05:42.029Z,6.87
2023-04-25T14:08:14.709Z,4.20
2023-04-25T14:10:47.680Z,7.73
2023-04-25T14:13:19.526Z,4.93
2023-04-25T14:15:52.319Z,3.53
2023-04-25T14:18:24.451Z,22.10
2023-04-25T14:20:56.271Z,6.40
2023-04-25T14:23:28.104Z,6.57
2023-04-25T14:26:01.487Z,4.77
2023-04-25T14:28:33.103Z,3.63
2023-04-25T14:31:04.988Z,4.97
2023-04-25T14:33:38.151Z,4.20
2023-04-25T14:36:10.145Z,2.90
2023-04-25T14:38:41.915Z,3.10
2023-04-25T14:41:14.977Z,5.53
2023-04-25T14:43:46.862Z,3.60
2023-04-25T14:46:18.816Z,4.90
2023-04-25T14:48:54.210Z,6.00
2023-04-25T14:51:27.369Z,4.03
2023-04-25T14:53:59.255Z,4.60
2023-04-25T14:56:32.249Z,3.70
2023-04-25T14:59:04.119Z,3.90
2023-04-25T15:01:37.134Z,4.97
2023-04-25T15:04:11.737Z,6.63
2023-04-25T15:06:43.809Z,3.97
2023-04-25T15:09:19.245Z,2.63
2023-04-25T15:11:52.943Z,2.17
2023-04-25T15:14:24.621Z,4.00
2023-04-25T15:16:56.620Z,4.77
2023-04-25T15:19:28.406Z,3.23
2023-04-25T15:22:02.403Z,5.27
2023-04-25T15:24:34.983Z,2.97
2023-04-25T15:27:08.592Z,4.03
2023-04-25T15:29:41.073Z,2.43
2023-04-25T15:32:30.513Z,3.07
2023-04-25T15:35:04.321Z,3.37
2023-04-25T15:37:36.306Z,4.23
2023-04-25T15:40:13.610Z,5.60
2023-04-25T15:42:48.811Z,4.23
2023-04-25T15:45:21.775Z,4.30
2023-04-25T15:47:55.038Z,4.80
2023-04-25T15:50:27.577Z,7.03
2023-04-25T15:52:59.257Z,4.67
2023-04-25T15:55:31.052Z,3.77
2023-04-25T15:58:04.434Z,4.17
2023-04-25T16:00:37.920Z,4.40
2023-04-25T16:03:09.940Z,2.93
2023-04-25T16:05:43.063Z,3.47
2023-04-25T16:08:14.656Z,3.63
2023-04-25T16:10:46.588Z,4.20
2023-04-25T16:13:19.783Z,3.37
2023-04-25T16:15:51.830Z,2.57
2023-04-25T16:18:23.592Z,4.57
2023-04-25T16:20:55.331Z,6.30
2023-04-25T16:23:27.476Z,6.77
2023-04-25T16:25:59.167Z,5.77
2023-04-25T16:28:32.108Z,5.27
2023-04-25T16:31:04.070Z,7.17
2023-04-25T16:33:38.464Z,5.37
2023-04-25T16:36:12.912Z,4.53
2023-04-25T16:38:45.021Z,3.80
2023-04-25T16:41:16.913Z,4.97
2023-04-25T16:43:49.873Z,5.77
2023-04-25T16:46:23.669Z,6.43
2023-04-25T16:48:55.380Z,4.23
2023-04-25T16:51:28.043Z,5.53
2023-04-25T16:54:00.042Z,3.90
2023-04-25T16:56:31.803Z,5.27
2023-04-25T16:59:04.904Z,5.60
2023-04-25T17:01:37.208Z,5.57
2023-04-25T17:04:08.938Z,3.90
2023-04-25T17:06:40.667Z,7.93
2023-04-25T17:09:12.635Z,6.43
2023-04-25T17:11:44.451Z,6.70
2023-04-25T17:14:17.423Z,5.20
2023-04-25T17:16:49.586Z,4.87
2023-04-25T17:19:21.639Z,8.43
2023-04-25T17:21:54.125Z,7.50
2023-04-25T17:24:26.184Z,7.57
2023-04-25T17:26:57.850Z,5.53
2023-04-25T17:29:32.839Z,5.17
2023-04-25T17:32:04.991Z,5.97
2023-04-25T17:34:37.531Z,6.50
2023-04-25T17:37:15.054Z,8.47
2023-04-25T17:39:46.849Z,4.00
2023-04-25T17:42:18.897Z,3.67
2023-04-25T17:44:52.406Z,6.43
2023-04-25T17:47:24.672Z,5.10
2023-04-25T17:49:56.591Z,7.20
2023-04-25T17:52:29.262Z,6.60
2023-04-25T17:55:02.523Z,5.40
2023-04-25T17:57:34.133Z,3.43
2023-04-25T18:00:09.186Z,3.07
2023-04-25T18:02:45.239Z,6.67
2023-04-25T18:05:17.746Z,4.13
2023-04-25T18:07:48.475Z,9.33
2023-04-25T18:10:20.352Z,7.13
2023-04-25T18:12:52.217Z,6.80
2023-04-25T18:15:25.239Z,6.83
2023-04-25T18:17:58.094Z,7.03
2023-04-25T18:20:30.005Z,6.43
2023-04-25T18:23:02.651Z,7.90
2023-04-25T18:25:34.576Z,6.33
2023-04-25T18:28:06.509Z,5.27
2023-04-25T18:30:40.076Z,5.00
2023-04-25T18:33:11.956Z,3.63
2023-04-25T18:35:55.360Z,6.40
2023-04-25T18:41:18.229Z,4.90
2023-04-25T18:44:01.207Z,4.63
2023-04-25T18:46:35.003Z,7.43
2023-04-25T18:49:06.978Z,5.07
2023-04-25T18:51:38.723Z,6.57
2023-04-25T18:54:11.922Z,5.00
2023-04-25T18:56:43.752Z,5.17
2023-04-25T18:59:17.153Z,5.10
2023-04-25T19:01:51.892Z,6.40
2023-04-25T19:04:23.598Z,5.47
2023-04-25T19:06:55.523Z,5.27
2023-04-25T19:09:27.421Z,7.20
2023-04-25T19:11:59.878Z,6.77
2023-04-25T19:14:34.300Z,3.93
2023-04-25T19:17:07.446Z,5.43
2023-04-25T19:19:39.264Z,4.77
2023-04-25T19:22:11.651Z,5.23
2023-04-25T19:24:43.227Z,7.43
2023-04-25T19:27:15.227Z,4.67
2023-04-25T19:29:48.290Z,4.67
2023-04-25T19:32:22.552Z,4.70
2023-04-25T19:34:54.481Z,6.60
2023-04-25T19:37:26.664Z,4.70
2023-04-25T19:39:58.304Z,7.00
2023-04-25T19:42:31.586Z,4.43
2023-04-25T19:45:03.492Z,5.80
2023-04-25T19:47:38.307Z,5.90
2023-04-25T19:50:13.907Z,6.33
2023-04-25T19:52:45.876Z,6.57
2023-04-25T19:55:18.048Z,5.33
2023-04-25T19:57:50.117Z,4.97
2023-04-25T20:00:26.789Z,6.57
2023-04-25T20:02:59.893Z,7.10
2023-04-25T20:05:32.174Z,5.87
2023-04-25T20:08:05.737Z,5.07
2023-04-25T20:10:37.656Z,12.70
2023-04-25T20:13:10.555Z,6.30
2023-04-25T20:15:42.562Z,10.87
2023-04-25T20:18:15.896Z,9.43
2023-04-25T20:20:47.874Z,7.60
2023-04-25T20:23:22.260Z,5.97
2023-04-25T20:25:54.146Z,8.03
2023-04-25T20:28:27.375Z,7.77
2023-04-25T20:30:59.030Z,7.67
2023-04-25T20:33:32.084Z,7.83
2023-04-25T20:36:03.992Z,6.77
2023-04-25T20:38:35.958Z,5.60
2023-04-25T20:41:07.916Z,9.30
2023-04-25T20:43:40.363Z,6.67
2023-04-25T20:46:12.326Z,9.83
2023-04-25T20:48:45.746Z,5.23
2023-04-25T20:51:18.130Z,7.63
2023-04-25T20:53:49.996Z,7.23
2023-04-25T20:56:21.826Z,6.27
2023-04-25T20:58:58.054Z,5.50
2023-04-25T21:01:30.213Z,10.37
2023-04-25T21:04:03.653Z,9.33
2023-04-25T21:06:37.226Z,6.20
2023-04-25T21:09:09.683Z,6.00
2023-04-25T21:11:41.586Z,8.03
2023-04-25T21:14:14.075Z,4.40
2023-04-25T21:16:46.099Z,8.07
2023-04-25T21:19:19.137Z,9.83
2023-04-25T21:21:50.908Z,10.50
2023-04-25T21:24:22.912Z,6.53
2023-04-25T21:26:54.565Z,5.27
2023-04-25T21:29:26.302Z,6.93
2023-04-25T21:31:58.262Z,7.33
2023-04-25T21:34:31.226Z,6.23
2023-04-25T21:37:03.364Z,7.60
2023-04-25T21:39:35.376Z,6.90
2023-04-25T21:42:08.960Z,10.47
2023-04-25T21:44:40.724Z,11.03
2023-04-25T21:47:12.342Z,7.60
2023-04-25T21:49:45.432Z,6.93
2023-04-25T21:52:18.186Z,6.57
2023-04-25T21:54:49.767Z,10.37
2023-04-25T21:57:22.342Z,10.70
2023-04-25T21:59:54.520Z,10.57
2023-04-25T22:02:27.368Z,11.63
2023-04-25T22:05:00.401Z,8.03
2023-04-25T22:07:32.031Z,5.97
2023-04-25T22:10:05.412Z,7.67
2023-04-25T22:12:37.391Z,8.53
2023-04-25T22:15:12.609Z,8.20
2023-04-25T22:17:44.729Z,9.30
2023-04-25T22:20:22.682Z,9.53
2023-04-25T22:22:55.486Z,10.37
2023-04-25T22:25:27.378Z,7.57
2023-04-25T22:27:59.847Z,8.37
2023-04-25T22:30:32.098Z,7.13
2023-04-25T22:33:03.701Z,7.13
2023-04-25T22:35:36.691Z,6.20
2023-04-25T22:38:08.692Z,8.30
2023-04-25T22:40:40.518Z,9.50
2023-04-25T22:43:12.958Z,7.73
2023-04-25T22:45:44.826Z,10.90
2023-04-25T22:48:16.844Z,8.53
2023-04-25T22:50:49.824Z,9.30
2023-04-25T22:53:21.684Z,8.60
2023-04-25T22:56:00.008Z,8.73
2023-04-25T22:58:33.954Z,10.33
2023-04-25T23:01:06.763Z,7.10
2023-04-25T23:03:40.270Z,9.50
2023-04-25T23:06:14.278Z,8.80
2023-04-25T23:08:46.097Z,8.03
2023-04-25T23:11:17.928Z,7.37
2023-04-25T23:13:49.881Z,11.13
2023-04-25T23:16:22.165Z,9.70
2023-04-25T23:18:53.857Z,10.33
2023-04-25T23:21:27.105Z,11.00
2023-04-25T23:23:58.980Z,8.37
2023-04-25T23:26:30.782Z,5.77
2023-04-25T23:29:02.651Z,9.33
2023-04-25T23:31:34.588Z,7.40
2023-04-25T23:34:06.610Z,7.87
2023-04-25T23:36:40.399Z,9.97
2023-04-25T23:39:13.565Z,10.10
2023-04-25T23:41:45.432Z,8.90
2023-04-25T23:44:17.379Z,9.20
2023-04-25T23:46:49.216Z,7.30
2023-04-25T23:49:21.110Z,6.90
2023-04-25T23:51:54.065Z,10.67
2023-04-25T23:54:26.644Z,7.47
2023-04-25T23:56:58.186Z,7.43
2023-04-25T23:59:30.048Z,11.33
